Terminal Aerodrome Forecast
Issued by NWS

Home | Current Version | Previous Version | Text Only | Print | Product List | Glossary On
Versions: 1 2 3 4 5 6 7 8 9 10 11 12 13 14 15 16 17
762
FTUS45 KABQ 251123
TAFSAF
TAF
KSAF 251123Z 2512/2612 01005KT P6SM SKC
     FM252100 22010G17KT P6SM SCT150 BKN200
     FM260200 22010KT P6SM BKN100
     FM260500 28011KT P6SM FEW040 BKN070=

USA.gov is the U.S. government's official web portal to all federal, state and local government web resources and services.